Gallatin, MO

4:52 PM CDT on May 29, 2015 (GMT -0500)
Lake Viking | | Change Station
CLOSE
Current Station
Personal Weather Station
Location: Gallatin, MO
Elevation: 909 ft
Nearby Weather Stations

Elev 909 ft 39.92 °N, 94.06 °W | Updated 6 minutes ago

Rain
Rain
73.0 °F
Feels Like 72 °F
N
0.0
Wind Variable Wind from ENE

Today
High -- | Low -- °F
--% Chance of Precip.
Yesterday
High -- | Low -- °F
Precip. -- in
5:50 AM 8:36 PM
Waxing Gibbous, 86% visible
Pressure 29.97 in
Visibility 10.0 miles
Clouds Mostly Cloudy 1100 ft
Heat Index 72 °F
Dew Point 68 °F
Humidity 85%
Rainfall 0.02 in
Snow Depth Not available.
UV 3 out of 12
Pollen .90 out of 12
Air Quality Not available.
Flu Activity Sporadic
METAR KGPH 292155Z AUTO 21003KT 10SM BKN011 20/18 A2997 RMK AO2 LTG DSNT S

More Conditions Fewer Conditions

Pressure 29.97 in
Visibility 10.0 miles
Clouds Mostly Cloudy 1100 ft
Heat Index 72 °F
Dew Point 68 °F
Humidity 85%
Rainfall 0.02 in
Snow Depth Not available.
UV 3 out of 12
Pollen .90 out of 12
Air Quality Not available.
Flu Activity Sporadic
METAR KGPH 292155Z AUTO 21003KT 10SM BKN011 20/18 A2997 RMK AO2 LTG DSNT S

More Conditions Fewer Conditions

10-Day Weather Forecast

Almanac

Astronomy

May. 29, 2015 Rise Set
Actual Time
Civil Twilight
Nautical Twilight
Astronomical Twilight
Moon
Length of Visible Light
Length of Day
Tomorrow will be .
, % of the Moon is Illuminated

Today's Extremes

State Highs State Lows

Community

WunderPhotos

Upload Photos

1,825,372 photos uploaded!

WunderBlogs® & News

Nearby

Air Quality

  Air Quality AQ Index Pollutant
Not available.

Snow Depth

Station Depth Elevation

Earthquake Activity

City Distance Mag. Time & Date
Minimum magnitude displayed is 2.5.

Coastal Water Temperatures

Place Temperature

Stations

Nearby Weather Stations

Station Location Temp. Windchill Dew Point Humidity Wind Precip. Elev Updated Type